createdAt,value
2022-10-18T00:02:15.006Z,96239.91
2022-10-18T00:04:41.643Z,96232.75
2022-10-18T00:07:08.190Z,96235.41
2022-10-18T00:09:34.795Z,96236.91
2022-10-18T00:12:01.435Z,96241.47
2022-10-18T00:14:27.975Z,96242.25
2022-10-18T00:16:54.731Z,96224.03
2022-10-18T00:19:23.759Z,96229.38
2022-10-18T00:21:52.584Z,96225.22
2022-10-18T00:24:19.139Z,96224.81
2022-10-18T00:26:45.701Z,96226.34
2022-10-18T00:29:14.037Z,96226.34
2022-10-18T00:31:41.145Z,96224.78
2022-10-18T00:34:14.387Z,96236.94
2022-10-18T00:36:42.003Z,96243.41
2022-10-18T00:39:14.159Z,96241.50
2022-10-18T00:41:40.715Z,96242.28
2022-10-18T00:44:13.662Z,96247.59
2022-10-18T00:46:43.006Z,96242.28
2022-10-18T00:49:36.051Z,96247.59
2022-10-18T00:52:16.605Z,96245.28
2022-10-18T00:54:46.320Z,96237.72
2022-10-18T00:57:14.302Z,96241.50
2022-10-18T00:59:42.738Z,96246.81
2022-10-18T01:02:09.643Z,96240.00
2022-10-18T01:04:36.798Z,96232.44
2022-10-18T01:07:12.335Z,96230.94
2022-10-18T01:09:45.603Z,96231.66
2022-10-18T01:12:47.829Z,96231.66
2022-10-18T01:15:29.576Z,96233.97
2022-10-18T01:18:18.245Z,96236.63
2022-10-18T01:21:09.224Z,96232.47
2022-10-18T01:24:13.182Z,96227.94
2022-10-18T01:26:51.761Z,96236.63
2022-10-18T01:29:39.088Z,96223.34
2022-10-18T01:32:12.607Z,96229.81
2022-10-18T01:34:43.129Z,96220.34
2022-10-18T01:37:14.842Z,96220.72
2022-10-18T01:39:45.800Z,96231.34
2022-10-18T01:42:17.728Z,96232.47
2022-10-18T01:44:46.927Z,96214.25
2022-10-18T01:47:15.406Z,96228.69
2022-10-18T01:49:42.266Z,96229.06
2022-10-18T01:52:18.302Z,96230.94
2022-10-18T01:54:50.881Z,96224.91
2022-10-18T01:58:01.278Z,96223.38
2022-10-18T02:00:42.235Z,96232.47
2022-10-18T02:03:21.524Z,96225.66
2022-10-18T02:05:57.536Z,96221.09
2022-10-18T02:08:35.369Z,96216.94
2022-10-18T02:11:08.530Z,96212.38
2022-10-18T02:13:49.180Z,96213.53
2022-10-18T02:16:29.179Z,96220.72
2022-10-18T02:19:00.844Z,96216.19
2022-10-18T02:21:28.761Z,96212.00
2022-10-18T02:23:57.861Z,96216.94
2022-10-18T02:26:24.965Z,96218.78
2022-10-18T02:28:51.866Z,96222.56
2022-10-18T02:31:40.159Z,96230.91
2022-10-18T02:34:20.149Z,96230.13
2022-10-18T02:36:51.728Z,96230.47
2022-10-18T02:39:22.910Z,96233.81
2022-10-18T02:41:49.544Z,96235.34
2022-10-18T02:44:16.413Z,96230.00
2022-10-18T02:46:43.135Z,96233.78
2022-10-18T02:49:09.649Z,96242.91
2022-10-18T02:51:36.268Z,96245.16
2022-10-18T02:54:02.865Z,96244.03
2022-10-18T02:56:29.437Z,96246.28
2022-10-18T02:58:56.246Z,96252.69
2022-10-18T03:01:22.918Z,96257.94
2022-10-18T03:03:49.745Z,96256.81
2022-10-18T03:06:16.304Z,96267.31
2022-10-18T03:08:42.822Z,96264.97
2022-10-18T03:11:09.370Z,96272.13
2022-10-18T03:13:35.947Z,96278.91
2022-10-18T03:16:02.610Z,96277.31
2022-10-18T03:18:29.191Z,96280.66
2022-10-18T03:20:55.946Z,96279.50
2022-10-18T03:23:22.487Z,96272.59
2022-10-18T03:25:49.098Z,96280.81
2022-10-18T03:28:15.810Z,96289.09
2022-10-18T03:30:42.377Z,96283.75
2022-10-18T03:33:09.712Z,96294.69
2022-10-18T03:35:36.422Z,96287.00
2022-10-18T03:38:03.020Z,96283.16
2022-10-18T03:43:01.258Z,96285.66
2022-10-18T03:45:31.179Z,96275.00
2022-10-18T03:47:58.229Z,96285.63
2022-10-18T03:50:24.948Z,96278.72
2022-10-18T03:52:51.485Z,96300.25
2022-10-18T03:55:18.047Z,96293.84
2022-10-18T03:57:44.606Z,96293.06
2022-10-18T04:00:11.769Z,96288.75
2022-10-18T04:02:38.340Z,96286.19
2022-10-18T04:05:05.465Z,96292.16
2022-10-18T04:07:32.146Z,96295.97
2022-10-18T04:09:58.728Z,96295.38
2022-10-18T04:12:25.447Z,96291.59
2022-10-18T04:14:52.011Z,96292.72
2022-10-18T04:17:18.565Z,96292.28
2022-10-18T04:19:45.309Z,96293.34
2022-10-18T04:22:12.378Z,96294.41
2022-10-18T04:24:39.315Z,96290.88
2022-10-18T04:27:07.126Z,96293.53
2022-10-18T04:29:34.135Z,96302.56
2022-10-18T04:32:00.780Z,96283.09
2022-10-18T04:34:27.522Z,96290.69
2022-10-18T04:36:54.477Z,96300.56
2022-10-18T04:39:21.138Z,96298.94
2022-10-18T04:41:47.760Z,96297.09
2022-10-18T04:44:14.508Z,96303.47
2022-10-18T04:46:41.061Z,96308.31
2022-10-18T04:49:07.923Z,96304.09
2022-10-18T04:51:34.492Z,96294.69
2022-10-18T04:54:01.064Z,96281.75
2022-10-18T04:56:27.657Z,96300.31
2022-10-18T04:58:54.204Z,96293.16
2022-10-18T05:01:20.866Z,96287.78
2022-10-18T05:03:53.283Z,96290.13
2022-10-18T05:06:20.446Z,96293.59
2022-10-18T05:08:46.985Z,96287.97
2022-10-18T05:11:13.755Z,96297.91
2022-10-18T05:13:40.369Z,96302.56
2022-10-18T05:16:07.536Z,96284.47
2022-10-18T05:18:34.327Z,96293.28
2022-10-18T05:21:00.925Z,96303.63
2022-10-18T05:23:27.497Z,96314.34
2022-10-18T05:25:54.301Z,96306.50
2022-10-18T05:28:38.707Z,96303.13
2022-10-18T05:31:08.672Z,96305.44
2022-10-18T05:33:35.321Z,96296.81
2022-10-18T05:36:01.956Z,96279.78
2022-10-18T05:38:31.295Z,96301.81
2022-10-18T05:40:59.185Z,96312.44
2022-10-18T05:43:29.496Z,96308.75
2022-10-18T05:45:56.157Z,96305.75
2022-10-18T05:48:23.105Z,96315.69
2022-10-18T05:50:49.699Z,96299.75
2022-10-18T05:53:35.672Z,96309.72
2022-10-18T05:56:04.046Z,96296.91
2022-10-18T05:58:30.825Z,96309.03
2022-10-18T06:01:01.670Z,96308.72
2022-10-18T06:03:28.425Z,96319.00
2022-10-18T06:06:04.036Z,96312.22
2022-10-18T06:08:30.750Z,96315.75
2022-10-18T06:10:59.441Z,96309.75
2022-10-18T06:13:26.378Z,96303.28
2022-10-18T06:15:57.551Z,96312.88
2022-10-18T06:18:24.281Z,96312.88
2022-10-18T06:20:57.213Z,96300.09
2022-10-18T06:23:23.797Z,96309.97
2022-10-18T06:25:50.317Z,96330.09
2022-10-18T06:28:17.349Z,96326.34
2022-10-18T06:30:44.686Z,96334.75
2022-10-18T06:33:13.989Z,96336.28
2022-10-18T06:35:40.701Z,96331.34
2022-10-18T06:38:07.295Z,96334.00
2022-10-18T06:40:37.994Z,96331.03
2022-10-18T06:43:19.924Z,96340.91
2022-10-18T06:45:47.516Z,96342.44
2022-10-18T06:48:14.091Z,96343.22
2022-10-18T06:50:40.716Z,96337.16
2022-10-18T06:53:08.972Z,96328.81
2022-10-18T06:55:36.329Z,96341.34
2022-10-18T06:58:03.042Z,96319.69
2022-10-18T07:00:29.725Z,96334.88
2022-10-18T07:02:57.643Z,96329.56
2022-10-18T07:05:24.282Z,96333.25
2022-10-18T07:07:54.265Z,96322.91
2022-10-18T07:10:24.252Z,96341.88
2022-10-18T07:12:53.438Z,96343.31
2022-10-18T07:15:24.296Z,96340.66
2022-10-18T07:17:50.964Z,96341.41
2022-10-18T07:20:17.813Z,96341.06
2022-10-18T07:22:44.378Z,96349.84
2022-10-18T07:25:11.060Z,96351.75
2022-10-18T07:27:42.536Z,96356.66
2022-10-18T07:30:11.188Z,96347.47
2022-10-18T07:32:37.709Z,96350.38
2022-10-18T07:35:04.542Z,96344.00
2022-10-18T07:37:31.516Z,96343.78
2022-10-18T07:39:58.373Z,96344.56
2022-10-18T07:42:25.016Z,96350.44
2022-10-18T07:44:51.629Z,96357.81
2022-10-18T07:47:18.258Z,96340.31
2022-10-18T07:49:44.901Z,96338.84
2022-10-18T07:52:11.598Z,96341.81
2022-10-18T07:54:38.302Z,96340.28
2022-10-18T07:57:05.390Z,96339.66
2022-10-18T07:59:32.232Z,96342.63
2022-10-18T08:01:58.924Z,96345.16
2022-10-18T08:04:25.579Z,96347.84
2022-10-18T08:06:52.222Z,96345.00
2022-10-18T08:09:18.712Z,96346.50
2022-10-18T08:11:45.351Z,96352.41
2022-10-18T08:14:12.051Z,96341.75
2022-10-18T08:16:38.642Z,96349.41
2022-10-18T08:19:05.185Z,96353.28
2022-10-18T08:21:31.990Z,96351.84
2022-10-18T08:23:58.562Z,96347.38
2022-10-18T08:26:25.106Z,96345.91
2022-10-18T08:29:10.315Z,96345.94
2022-10-18T08:31:38.834Z,96348.97
2022-10-18T08:34:05.394Z,96354.16
2022-10-18T08:36:32.008Z,96332.00
2022-10-18T08:38:58.654Z,96355.81
2022-10-18T08:41:37.195Z,96342.81
2022-10-18T08:44:07.457Z,96342.84
2022-10-18T08:46:36.775Z,96340.03
2022-10-18T08:49:05.727Z,96338.84
2022-10-18T08:51:46.266Z,96330.81
2022-10-18T08:54:16.492Z,96321.72
2022-10-18T08:56:47.758Z,96329.44
2022-10-18T08:59:14.374Z,96339.28
2022-10-18T09:01:59.746Z,96330.00
2022-10-18T09:05:03.123Z,96332.94
2022-10-18T09:07:32.563Z,96340.16
2022-10-18T09:10:08.304Z,96334.50
2022-10-18T09:13:08.085Z,96338.66
2022-10-18T09:15:37.282Z,96328.69
2022-10-18T09:18:03.809Z,96331.25
2022-10-18T09:20:53.900Z,96343.34
2022-10-18T09:23:29.509Z,96333.34
2022-10-18T09:26:15.727Z,96325.72
2022-10-18T09:29:12.871Z,96319.94
2022-10-18T09:32:04.827Z,96319.50
2022-10-18T09:34:42.706Z,96318.88
2022-10-18T09:37:14.735Z,96323.41
2022-10-18T09:39:41.945Z,96328.84
2022-10-18T09:42:26.865Z,96319.84
2022-10-18T09:44:58.794Z,96320.88
2022-10-18T09:47:41.184Z,96322.28
2022-10-18T09:50:17.851Z,96311.38
2022-10-18T09:52:59.833Z,96324.34
2022-10-18T09:55:35.583Z,96322.22
2022-10-18T09:58:06.953Z,96320.22
2022-10-18T10:00:38.939Z,96318.56
2022-10-18T10:03:15.851Z,96326.06
2022-10-18T10:05:43.745Z,96319.88
2022-10-18T10:08:11.218Z,96320.66
2022-10-18T10:10:46.674Z,96302.25
2022-10-18T10:13:22.800Z,96299.91
2022-10-18T10:15:56.217Z,96312.69
2022-10-18T10:18:26.186Z,96305.94
2022-10-18T10:20:55.859Z,96307.81
2022-10-18T10:23:28.224Z,96314.44
2022-10-18T10:25:58.459Z,96305.50
2022-10-18T10:28:31.691Z,96306.53
2022-10-18T10:31:17.898Z,96309.94
2022-10-18T10:33:47.795Z,96303.44
2022-10-18T10:36:20.150Z,96299.47
2022-10-18T10:39:02.016Z,96294.75
2022-10-18T10:41:28.668Z,96291.91
2022-10-18T10:43:55.837Z,96289.81
2022-10-18T10:46:23.478Z,96287.53
2022-10-18T10:49:13.945Z,96296.00
2022-10-18T10:51:43.610Z,96292.25
2022-10-18T10:54:16.925Z,96297.97
2022-10-18T10:57:05.518Z,96293.53
2022-10-18T10:59:53.703Z,96290.25
2022-10-18T11:02:29.183Z,96286.25
2022-10-18T11:04:56.915Z,96286.41
2022-10-18T11:07:35.835Z,96282.00
2022-10-18T11:10:11.745Z,96278.78
2022-10-18T11:12:42.892Z,96282.03
2022-10-18T11:15:15.372Z,96275.41
2022-10-18T11:18:06.964Z,96269.03
2022-10-18T11:20:53.374Z,96267.69
2022-10-18T11:23:21.686Z,96257.69
2022-10-18T11:26:11.297Z,96263.25
2022-10-18T11:29:09.078Z,96269.47
2022-10-18T11:31:41.273Z,96271.47
2022-10-18T11:34:50.776Z,96260.53
2022-10-18T11:37:38.692Z,96264.44
2022-10-18T11:40:42.062Z,96263.16
2022-10-18T11:43:20.383Z,96259.16
2022-10-18T11:46:14.774Z,96249.28
2022-10-18T11:48:59.468Z,96244.66
2022-10-18T11:52:07.311Z,96236.88
2022-10-18T11:54:43.685Z,96223.72
2022-10-18T11:57:32.132Z,96225.53
2022-10-18T12:00:23.022Z,96236.44
2022-10-18T12:03:19.916Z,96222.69
2022-10-18T12:05:48.533Z,96227.06
2022-10-18T12:08:18.670Z,96221.38
2022-10-18T12:11:04.514Z,96221.38
2022-10-18T12:13:50.147Z,96214.19
2022-10-18T12:16:33.540Z,96210.31
2022-10-18T12:19:16.270Z,96205.34
2022-10-18T12:21:43.493Z,96212.13
2022-10-18T12:24:27.564Z,96209.47
2022-10-18T12:26:59.727Z,96208.81
2022-10-18T12:29:29.915Z,96202.09
2022-10-18T12:32:19.125Z,96197.38
2022-10-18T12:34:53.597Z,96192.72
2022-10-18T12:37:43.621Z,96186.06
2022-10-18T12:40:20.403Z,96198.16
2022-10-18T12:42:51.182Z,96195.56
2022-10-18T12:45:34.863Z,96196.22
2022-10-18T12:48:42.812Z,96185.50
2022-10-18T12:51:22.376Z,96188.69
2022-10-18T12:54:10.275Z,96175.22
2022-10-18T12:56:42.537Z,96176.63
2022-10-18T12:59:15.383Z,96172.59
2022-10-18T13:01:51.023Z,96163.03
2022-10-18T13:04:29.910Z,96160.78
2022-10-18T13:07:05.268Z,96168.53
2022-10-18T13:09:35.501Z,96168.28
2022-10-18T13:12:02.208Z,96170.50
2022-10-18T13:15:24.079Z,96160.78
2022-10-18T13:18:01.031Z,96161.03
2022-10-18T13:20:40.776Z,96158.09
2022-10-18T13:23:31.619Z,96163.97
2022-10-18T13:26:13.419Z,96149.13
2022-10-18T13:29:05.045Z,96153.97
2022-10-18T13:31:59.867Z,96132.59
2022-10-18T13:34:39.079Z,96146.34
2022-10-18T13:37:11.334Z,96140.25
2022-10-18T13:39:39.812Z,96146.25
2022-10-18T13:42:15.818Z,96147.19
2022-10-18T13:44:44.740Z,96138.28
2022-10-18T13:47:32.778Z,96150.09
2022-10-18T13:50:18.016Z,96143.91
2022-10-18T13:53:16.217Z,96145.97
2022-10-18T13:56:01.275Z,96145.31
2022-10-18T13:58:49.212Z,96147.38
2022-10-18T14:01:42.696Z,96146.81
2022-10-18T14:04:39.959Z,96146.78
2022-10-18T14:07:09.019Z,96144.69
2022-10-18T14:09:48.633Z,96150.22
2022-10-18T14:12:30.963Z,96145.44
2022-10-18T14:15:23.311Z,96143.78
2022-10-18T14:18:04.974Z,96139.31
2022-10-18T14:21:01.451Z,96141.16
2022-10-18T14:23:44.505Z,96137.53
2022-10-18T14:26:15.971Z,96140.25
2022-10-18T14:28:59.202Z,96141.75
2022-10-18T14:31:27.440Z,96144.84
2022-10-18T14:33:58.077Z,96150.09
2022-10-18T14:36:30.863Z,96151.31
2022-10-18T14:39:00.396Z,96148.38
2022-10-18T14:41:35.012Z,96148.16
2022-10-18T14:44:18.503Z,96146.47
2022-10-18T14:46:53.390Z,96140.25
2022-10-18T14:49:21.245Z,96139.34
2022-10-18T14:51:51.531Z,96150.75
2022-10-18T14:54:25.062Z,96140.25
2022-10-18T14:56:54.572Z,96140.31
2022-10-18T14:59:24.733Z,96150.19
2022-10-18T15:01:54.919Z,96140.63
2022-10-18T15:04:27.653Z,96136.38
2022-10-18T15:06:55.727Z,96130.44
2022-10-18T15:09:24.365Z,96130.13
2022-10-18T15:11:51.807Z,96128.19
2022-10-18T15:14:20.513Z,96127.75
2022-10-18T15:16:50.109Z,96115.72
2022-10-18T15:19:16.591Z,96114.72
2022-10-18T15:22:31.204Z,96112.03
2022-10-18T15:25:12.477Z,96102.50
2022-10-18T15:27:39.953Z,96113.41
2022-10-18T15:30:18.258Z,96117.75
2022-10-18T15:32:51.332Z,96107.25
2022-10-18T15:35:26.531Z,96095.91
2022-10-18T15:37:55.814Z,96105.81
2022-10-18T15:40:22.340Z,96108.75
2022-10-18T15:42:57.602Z,96107.13
2022-10-18T15:45:24.209Z,96101.50
2022-10-18T15:48:36.381Z,96103.34
2022-10-18T15:51:05.596Z,96103.69
2022-10-18T15:53:53.298Z,96109.34
2022-10-18T15:56:31.128Z,96107.75
2022-10-18T15:59:00.920Z,96109.69
2022-10-18T16:01:42.723Z,96111.13
2022-10-18T16:04:19.013Z,96098.69
2022-10-18T16:06:45.627Z,96104.44
2022-10-18T16:09:23.023Z,96106.63
2022-10-18T16:11:56.773Z,96106.13
2022-10-18T16:14:25.834Z,96107.25
2022-10-18T16:17:00.660Z,96097.44
2022-10-18T16:19:28.092Z,96099.91
2022-10-18T16:21:55.007Z,96107.28
2022-10-18T16:24:21.854Z,96111.78
2022-10-18T16:26:49.687Z,96102.16
2022-10-18T16:29:24.290Z,96101.00
2022-10-18T16:31:53.661Z,96098.44
2022-10-18T16:34:20.262Z,96109.47
2022-10-18T16:36:46.760Z,96108.28
2022-10-18T16:39:16.715Z,96107.59
2022-10-18T16:41:44.285Z,96107.88
2022-10-18T16:44:10.842Z,96106.53
2022-10-18T16:46:37.676Z,96100.72
2022-10-18T16:49:05.422Z,96109.28
2022-10-18T16:51:31.986Z,96113.94
2022-10-18T16:53:58.825Z,96112.94
2022-10-18T16:56:30.724Z,96109.72
2022-10-18T16:58:58.708Z,96114.41
2022-10-18T17:01:26.297Z,96113.81
2022-10-18T17:03:53.914Z,96127.19
2022-10-18T17:06:22.485Z,96132.22
2022-10-18T17:08:49.636Z,96123.84
2022-10-18T17:11:17.372Z,96123.81
2022-10-18T17:13:44.777Z,96128.41
2022-10-18T17:16:32.805Z,96119.72
2022-10-18T17:19:02.160Z,96134.59
2022-10-18T17:21:29.881Z,96138.88
2022-10-18T17:24:00.601Z,96137.75
2022-10-18T17:26:29.619Z,96141.13
2022-10-18T17:29:00.395Z,96140.81
2022-10-18T17:31:28.124Z,96142.41
2022-10-18T17:33:55.509Z,96140.16
2022-10-18T17:36:22.535Z,96137.19
2022-10-18T17:38:53.716Z,96152.00
2022-10-18T17:41:20.933Z,96131.94
2022-10-18T17:49:55.403Z,96147.94
2022-10-18T17:56:17.302Z,96150.31
2022-10-18T17:58:43.831Z,96149.97
2022-10-18T18:01:19.174Z,96154.88
2022-10-18T18:03:47.821Z,96162.88
2022-10-18T18:06:24.116Z,96161.00
2022-10-18T18:08:50.758Z,96158.75
2022-10-18T18:11:18.327Z,96154.25
2022-10-18T18:13:45.633Z,96153.16
2022-10-18T18:16:16.421Z,96166.41
2022-10-18T18:18:43.383Z,96159.59
2022-10-18T18:21:10.023Z,96156.59
2022-10-18T18:23:36.763Z,96156.56
2022-10-18T18:26:03.722Z,96159.22
2022-10-18T18:28:30.814Z,96155.09
2022-10-18T18:30:57.463Z,96166.84
2022-10-18T18:33:24.063Z,96156.59
2022-10-18T18:35:57.973Z,96161.91
2022-10-18T18:38:25.837Z,96161.16
2022-10-18T18:41:09.288Z,96161.56
2022-10-18T18:43:36.445Z,96157.38
2022-10-18T18:46:03.109Z,96168.78
2022-10-18T18:48:32.747Z,96163.44
2022-10-18T18:50:59.515Z,96157.41
2022-10-18T18:53:29.449Z,96161.97
2022-10-18T18:56:02.118Z,96161.22
2022-10-18T18:58:28.664Z,96161.59
2022-10-18T19:00:55.196Z,96156.66
2022-10-18T19:03:21.926Z,96163.47
2022-10-18T19:05:48.484Z,96158.88
2022-10-18T19:08:15.090Z,96155.84
2022-10-18T19:10:41.939Z,96158.91
2022-10-18T19:13:08.478Z,96146.75
2022-10-18T19:15:35.141Z,96162.66
2022-10-18T19:18:01.880Z,96151.31
2022-10-18T19:20:28.598Z,96164.56
2022-10-18T19:22:55.149Z,96161.94
2022-10-18T19:25:24.694Z,96152.03
2022-10-18T19:27:53.506Z,96158.47
2022-10-18T19:30:20.258Z,96146.75
2022-10-18T19:32:46.971Z,96154.34
2022-10-18T19:35:13.517Z,96147.09
2022-10-18T19:37:40.733Z,96146.34
2022-10-18T19:40:07.995Z,96158.84
2022-10-18T19:42:35.992Z,96149.75
2022-10-18T19:45:03.266Z,96155.06
2022-10-18T19:47:29.801Z,96143.69
2022-10-18T19:49:56.820Z,96145.19
2022-10-18T19:52:23.342Z,96127.75
2022-10-18T19:54:49.902Z,96139.88
2022-10-18T19:57:16.568Z,96142.16
2022-10-18T19:59:43.333Z,96144.44
2022-10-18T20:02:14.178Z,96144.06
2022-10-18T20:04:40.849Z,96144.06
2022-10-18T20:07:07.435Z,96137.25
2022-10-18T20:09:34.109Z,96145.97
2022-10-18T20:12:00.659Z,96144.81
2022-10-18T20:14:27.313Z,96135.31
2022-10-18T20:16:53.878Z,96142.16
2022-10-18T20:19:20.470Z,96143.63
2022-10-18T20:21:47.014Z,96145.91
2022-10-18T20:24:13.559Z,96139.84
2022-10-18T20:26:40.218Z,96141.34
2022-10-18T20:29:08.077Z,96136.00
2022-10-18T20:31:38.317Z,96145.88
2022-10-18T20:34:08.875Z,96142.06
2022-10-18T20:36:35.857Z,96155.31
2022-10-18T20:39:04.410Z,96139.78
2022-10-18T20:41:37.002Z,96150.00
2022-10-18T20:44:07.000Z,96154.91
2022-10-18T20:46:37.039Z,96150.69
2022-10-18T20:49:05.612Z,96149.16
2022-10-18T20:51:33.753Z,96150.63
2022-10-18T20:54:01.949Z,96144.97
2022-10-18T20:56:28.582Z,96145.69
2022-10-18T20:58:56.734Z,96137.38
2022-10-18T21:01:26.455Z,96134.34
2022-10-18T21:03:54.793Z,96133.59
2022-10-18T21:06:27.332Z,96138.88
2022-10-18T21:09:02.300Z,96130.53
2022-10-18T21:11:30.382Z,96126.00
2022-10-18T21:14:00.159Z,96126.75
2022-10-18T21:16:27.613Z,96129.75
2022-10-18T21:18:55.017Z,96117.66
2022-10-18T21:21:24.381Z,96118.44
2022-10-18T21:23:51.973Z,96120.31
2022-10-18T21:26:22.231Z,96113.13
2022-10-18T21:28:53.694Z,96111.56
2022-10-18T21:31:27.780Z,96116.13
2022-10-18T21:33:56.954Z,96120.69
2022-10-18T21:36:24.654Z,96116.13
2022-10-18T21:38:51.506Z,96124.41
2022-10-18T21:41:19.670Z,96120.59
2022-10-18T21:43:51.393Z,96115.31
2022-10-18T21:46:19.718Z,96110.31
2022-10-18T21:48:48.877Z,96109.19
2022-10-18T21:51:18.164Z,96106.91
2022-10-18T21:53:47.704Z,96104.25
2022-10-18T21:56:26.983Z,96085.69
2022-10-18T21:58:54.018Z,96101.59
2022-10-18T22:01:24.243Z,96093.66
2022-10-18T22:03:53.343Z,96100.81
2022-10-18T22:06:21.176Z,96094.75
2022-10-18T22:08:53.282Z,96080.72
2022-10-18T22:11:22.786Z,96097.75
2022-10-18T22:13:49.737Z,96092.03
2022-10-18T22:16:16.841Z,96093.19
2022-10-18T22:18:45.382Z,96101.47
2022-10-18T22:21:14.554Z,96095.78
2022-10-18T22:23:44.206Z,96082.56
2022-10-18T22:26:17.189Z,96079.53
2022-10-18T22:28:45.249Z,96087.06
2022-10-18T22:31:20.500Z,96087.06
2022-10-18T22:33:48.048Z,96067.31
2022-10-18T22:36:14.633Z,96091.50
2022-10-18T22:38:41.176Z,96071.41
2022-10-18T22:41:10.397Z,96085.47
2022-10-18T22:43:38.314Z,96084.72
2022-10-18T22:46:07.895Z,96077.16
2022-10-18T22:48:34.988Z,96069.63
2022-10-18T22:51:02.430Z,96065.81
2022-10-18T22:53:29.700Z,96075.97
2022-10-18T22:55:56.457Z,96072.56
2022-10-18T22:58:23.608Z,96079.34
2022-10-18T23:00:50.282Z,96065.75
2022-10-18T23:03:18.852Z,96058.13
2022-10-18T23:05:46.586Z,96071.06
2022-10-18T23:08:14.542Z,96065.75
2022-10-18T23:10:42.870Z,96049.06
2022-10-18T23:13:10.820Z,96066.84
2022-10-18T23:15:40.738Z,96062.69
2022-10-18T23:18:07.460Z,96068.69
2022-10-18T23:20:34.178Z,96064.88
2022-10-18T23:23:00.705Z,96051.19
2022-10-18T23:25:27.495Z,96069.69
2022-10-18T23:27:54.546Z,96059.88
2022-10-18T23:30:21.097Z,96055.66
2022-10-18T23:32:47.885Z,96059.84
2022-10-18T23:35:14.416Z,96049.59
2022-10-18T23:37:40.973Z,96056.31
2022-10-18T23:40:08.699Z,96054.06
2022-10-18T23:42:35.281Z,96047.22
2022-10-18T23:45:01.946Z,96044.91
2022-10-18T23:47:28.800Z,96041.16
2022-10-18T23:49:57.256Z,96044.13
2022-10-18T23:52:24.817Z,96039.53
2022-10-18T23:54:51.437Z,96046.34
2022-10-18T23:57:17.966Z,96039.50
2022-10-18T23:59:44.504Z,96034.19
